sensor_id;sensor_type;location;lat;lon;timestamp;temperature;humidity
43183;DHT22;28802;38.578;-0.066;2023-04-15T00:01:28;21.60;99.90
43183;DHT22;28802;38.578;-0.066;2023-04-15T00:03:54;21.50;99.90
43183;DHT22;28802;38.578;-0.066;2023-04-15T00:06:21;21.60;99.90
43183;DHT22;28802;38.578;-0.066;2023-04-15T00:08:48;21.60;99.90
43183;DHT22;28802;38.578;-0.066;2023-04-15T00:11:16;21.50;99.90
43183;DHT22;28802;38.578;-0.066;2023-04-15T00:13:44;21.60;99.90
43183;DHT22;28802;38.578;-0.066;2023-04-15T00:16:10;21.60;99.90
43183;DHT22;28802;38.578;-0.066;2023-04-15T00:18:37;21.70;99.90
43183;DHT22;28802;38.578;-0.066;2023-04-15T00:21:04;21.70;99.90
43183;DHT22;28802;38.578;-0.066;2023-04-15T00:23:43;21.70;99.90
43183;DHT22;28802;38.578;-0.066;2023-04-15T00:26:09;21.70;99.90
43183;DHT22;28802;38.578;-0.066;2023-04-15T00:28:36;21.70;99.90
43183;DHT22;28802;38.578;-0.066;2023-04-15T00:31:02;21.70;99.90
43183;DHT22;28802;38.578;-0.066;2023-04-15T00:33:28;21.70;99.90
43183;DHT22;28802;38.578;-0.066;2023-04-15T00:35:55;21.70;99.90
43183;DHT22;28802;38.578;-0.066;2023-04-15T00:38:24;21.70;99.90
43183;DHT22;28802;38.578;-0.066;2023-04-15T00:40:50;21.70;99.90
43183;DHT22;28802;38.578;-0.066;2023-04-15T00:43:17;21.60;99.90
43183;DHT22;28802;38.578;-0.066;2023-04-15T00:45:43;21.60;99.90
43183;DHT22;28802;38.578;-0.066;2023-04-15T00:48:11;21.50;99.90
43183;DHT22;28802;38.578;-0.066;2023-04-15T00:50:38;21.50;99.90
43183;DHT22;28802;38.578;-0.066;2023-04-15T00:53:04;21.40;99.90
43183;DHT22;28802;38.578;-0.066;2023-04-15T00:55:30;21.40;99.90
43183;DHT22;28802;38.578;-0.066;2023-04-15T00:57:56;21.30;99.90
43183;DHT22;28802;38.578;-0.066;2023-04-15T01:00:22;21.30;99.90
43183;DHT22;28802;38.578;-0.066;2023-04-15T01:02:49;21.20;99.90
43183;DHT22;28802;38.578;-0.066;2023-04-15T01:05:16;21.20;99.90
43183;DHT22;28802;38.578;-0.066;2023-04-15T01:07:43;21.20;99.90
43183;DHT22;28802;38.578;-0.066;2023-04-15T01:10:09;21.20;99.90
43183;DHT22;28802;38.578;-0.066;2023-04-15T01:12:35;21.10;99.90
43183;DHT22;28802;38.578;-0.066;2023-04-15T01:15:03;21.20;99.90
43183;DHT22;28802;38.578;-0.066;2023-04-15T01:17:29;21.10;99.90
43183;DHT22;28802;38.578;-0.066;2023-04-15T01:19:55;21.10;99.90
43183;DHT22;28802;38.578;-0.066;2023-04-15T01:22:26;21.00;99.90
43183;DHT22;28802;38.578;-0.066;2023-04-15T01:25:08;21.00;99.90
43183;DHT22;28802;38.578;-0.066;2023-04-15T01:27:40;21.00;99.90
43183;DHT22;28802;38.578;-0.066;2023-04-15T01:30:08;20.90;99.90
43183;DHT22;28802;38.578;-0.066;2023-04-15T01:32:34;21.00;99.90
43183;DHT22;28802;38.578;-0.066;2023-04-15T01:35:00;21.00;99.90
43183;DHT22;28802;38.578;-0.066;2023-04-15T01:37:26;21.00;99.90
43183;DHT22;28802;38.578;-0.066;2023-04-15T01:39:52;21.00;99.90
43183;DHT22;28802;38.578;-0.066;2023-04-15T01:42:18;20.90;99.90
43183;DHT22;28802;38.578;-0.066;2023-04-15T01:44:44;20.90;99.90
43183;DHT22;28802;38.578;-0.066;2023-04-15T01:47:10;20.90;99.90
43183;DHT22;28802;38.578;-0.066;2023-04-15T01:49:37;20.90;99.90
43183;DHT22;28802;38.578;-0.066;2023-04-15T01:52:03;20.90;99.90
43183;DHT22;28802;38.578;-0.066;2023-04-15T01:54:29;20.90;99.90
43183;DHT22;28802;38.578;-0.066;2023-04-15T01:56:55;20.90;99.90
43183;DHT22;28802;38.578;-0.066;2023-04-15T01:59:21;20.90;99.90
43183;DHT22;28802;38.578;-0.066;2023-04-15T02:01:47;20.90;99.90
43183;DHT22;28802;38.578;-0.066;2023-04-15T02:04:13;20.90;99.90
43183;DHT22;28802;38.578;-0.066;2023-04-15T02:06:42;20.80;99.90
43183;DHT22;28802;38.578;-0.066;2023-04-15T02:09:09;20.80;99.90
43183;DHT22;28802;38.578;-0.066;2023-04-15T02:11:35;20.80;99.90
43183;DHT22;28802;38.578;-0.066;2023-04-15T02:14:03;20.80;99.90
43183;DHT22;28802;38.578;-0.066;2023-04-15T02:16:30;20.70;99.90
43183;DHT22;28802;38.578;-0.066;2023-04-15T02:18:57;20.70;99.90
43183;DHT22;28802;38.578;-0.066;2023-04-15T02:21:22;20.70;99.90
43183;DHT22;28802;38.578;-0.066;2023-04-15T02:23:48;20.70;99.90
43183;DHT22;28802;38.578;-0.066;2023-04-15T02:26:15;20.60;99.90
43183;DHT22;28802;38.578;-0.066;2023-04-15T02:28:41;20.60;99.90
43183;DHT22;28802;38.578;-0.066;2023-04-15T02:31:07;20.60;99.90
43183;DHT22;28802;38.578;-0.066;2023-04-15T02:33:34;20.70;99.90
43183;DHT22;28802;38.578;-0.066;2023-04-15T02:36:01;20.60;99.90
43183;DHT22;28802;38.578;-0.066;2023-04-15T02:38:27;20.60;99.90
43183;DHT22;28802;38.578;-0.066;2023-04-15T02:40:53;20.50;99.90
43183;DHT22;28802;38.578;-0.066;2023-04-15T02:43:20;20.50;99.90
43183;DHT22;28802;38.578;-0.066;2023-04-15T02:45:46;20.40;99.90
43183;DHT22;28802;38.578;-0.066;2023-04-15T02:48:13;20.50;99.90
43183;DHT22;28802;38.578;-0.066;2023-04-15T02:50:39;20.50;99.90
43183;DHT22;28802;38.578;-0.066;2023-04-15T02:53:06;20.40;99.90
43183;DHT22;28802;38.578;-0.066;2023-04-15T02:55:32;20.40;99.90
43183;DHT22;28802;38.578;-0.066;2023-04-15T02:58:01;20.40;99.90
43183;DHT22;28802;38.578;-0.066;2023-04-15T03:00:27;20.40;99.90
43183;DHT22;28802;38.578;-0.066;2023-04-15T03:02:59;20.40;99.90
43183;DHT22;28802;38.578;-0.066;2023-04-15T03:05:26;20.30;99.90
43183;DHT22;28802;38.578;-0.066;2023-04-15T03:07:52;20.30;99.90
43183;DHT22;28802;38.578;-0.066;2023-04-15T03:10:19;20.30;99.90
43183;DHT22;28802;38.578;-0.066;2023-04-15T03:12:45;20.30;99.90
43183;DHT22;28802;38.578;-0.066;2023-04-15T03:15:16;20.30;99.90
43183;DHT22;28802;38.578;-0.066;2023-04-15T03:17:45;20.30;99.90
43183;DHT22;28802;38.578;-0.066;2023-04-15T03:20:13;20.30;99.90
43183;DHT22;28802;38.578;-0.066;2023-04-15T03:22:40;20.30;99.90
43183;DHT22;28802;38.578;-0.066;2023-04-15T03:25:07;20.30;99.90
43183;DHT22;28802;38.578;-0.066;2023-04-15T03:27:36;20.40;99.90
43183;DHT22;28802;38.578;-0.066;2023-04-15T03:30:03;20.40;99.90
43183;DHT22;28802;38.578;-0.066;2023-04-15T03:32:32;20.40;99.90
43183;DHT22;28802;38.578;-0.066;2023-04-15T03:34:58;20.40;99.90
43183;DHT22;28802;38.578;-0.066;2023-04-15T03:37:24;20.40;99.90
43183;DHT22;28802;38.578;-0.066;2023-04-15T03:39:53;20.30;99.90
43183;DHT22;28802;38.578;-0.066;2023-04-15T03:42:19;20.30;99.90
43183;DHT22;28802;38.578;-0.066;2023-04-15T03:44:45;20.30;99.90
43183;DHT22;28802;38.578;-0.066;2023-04-15T03:47:11;20.30;99.90
43183;DHT22;28802;38.578;-0.066;2023-04-15T03:49:37;20.30;99.90
43183;DHT22;28802;38.578;-0.066;2023-04-15T03:52:03;20.30;99.90
43183;DHT22;28802;38.578;-0.066;2023-04-15T03:54:29;20.20;99.90
43183;DHT22;28802;38.578;-0.066;2023-04-15T03:56:55;20.30;99.90
43183;DHT22;28802;38.578;-0.066;2023-04-15T04:01:52;20.30;99.90
43183;DHT22;28802;38.578;-0.066;2023-04-15T04:04:18;20.30;99.90
43183;DHT22;28802;38.578;-0.066;2023-04-15T04:06:44;20.30;99.90
43183;DHT22;28802;38.578;-0.066;2023-04-15T04:09:10;20.30;99.90
43183;DHT22;28802;38.578;-0.066;2023-04-15T04:11:36;20.40;99.90
43183;DHT22;28802;38.578;-0.066;2023-04-15T04:14:02;20.30;99.90
43183;DHT22;28802;38.578;-0.066;2023-04-15T04:16:28;20.30;99.90
43183;DHT22;28802;38.578;-0.066;2023-04-15T04:18:54;20.20;99.90
43183;DHT22;28802;38.578;-0.066;2023-04-15T04:21:20;20.20;99.90
43183;DHT22;28802;38.578;-0.066;2023-04-15T04:23:46;20.20;99.90
43183;DHT22;28802;38.578;-0.066;2023-04-15T04:26:16;20.10;99.90
43183;DHT22;28802;38.578;-0.066;2023-04-15T04:28:42;20.10;99.90
43183;DHT22;28802;38.578;-0.066;2023-04-15T04:31:08;20.00;99.90
43183;DHT22;28802;38.578;-0.066;2023-04-15T04:33:34;20.00;99.90
43183;DHT22;28802;38.578;-0.066;2023-04-15T04:36:00;19.90;99.90
43183;DHT22;28802;38.578;-0.066;2023-04-15T04:38:26;19.80;99.90
43183;DHT22;28802;38.578;-0.066;2023-04-15T04:40:52;19.70;99.90
43183;DHT22;28802;38.578;-0.066;2023-04-15T04:43:18;19.70;99.90
43183;DHT22;28802;38.578;-0.066;2023-04-15T04:45:44;19.70;99.90
43183;DHT22;28802;38.578;-0.066;2023-04-15T04:48:12;19.70;99.90
43183;DHT22;28802;38.578;-0.066;2023-04-15T04:50:38;19.60;99.90
43183;DHT22;28802;38.578;-0.066;2023-04-15T04:53:04;19.60;99.90
43183;DHT22;28802;38.578;-0.066;2023-04-15T04:55:30;19.70;99.90
43183;DHT22;28802;38.578;-0.066;2023-04-15T04:57:56;19.70;99.90
43183;DHT22;28802;38.578;-0.066;2023-04-15T05:00:22;19.70;99.90
43183;DHT22;28802;38.578;-0.066;2023-04-15T05:02:49;19.70;99.90
43183;DHT22;28802;38.578;-0.066;2023-04-15T05:05:15;19.70;99.90
43183;DHT22;28802;38.578;-0.066;2023-04-15T05:07:41;19.70;99.90
43183;DHT22;28802;38.578;-0.066;2023-04-15T05:10:07;19.70;99.90
43183;DHT22;28802;38.578;-0.066;2023-04-15T05:12:34;19.70;99.90
43183;DHT22;28802;38.578;-0.066;2023-04-15T05:15:00;19.70;99.90
43183;DHT22;28802;38.578;-0.066;2023-04-15T05:17:26;19.70;99.90
43183;DHT22;28802;38.578;-0.066;2023-04-15T05:19:52;19.70;99.90
43183;DHT22;28802;38.578;-0.066;2023-04-15T05:22:18;19.60;99.90
43183;DHT22;28802;38.578;-0.066;2023-04-15T05:24:44;19.60;99.90
43183;DHT22;28802;38.578;-0.066;2023-04-15T05:27:10;19.60;99.90
43183;DHT22;28802;38.578;-0.066;2023-04-15T05:29:36;19.70;99.90
43183;DHT22;28802;38.578;-0.066;2023-04-15T05:32:02;19.70;99.90
43183;DHT22;28802;38.578;-0.066;2023-04-15T05:34:28;19.80;99.90
43183;DHT22;28802;38.578;-0.066;2023-04-15T05:36:53;19.80;99.90
43183;DHT22;28802;38.578;-0.066;2023-04-15T05:39:19;20.00;99.90
43183;DHT22;28802;38.578;-0.066;2023-04-15T05:41:45;20.10;99.90
43183;DHT22;28802;38.578;-0.066;2023-04-15T05:44:11;20.50;99.90
43183;DHT22;28802;38.578;-0.066;2023-04-15T05:46:37;20.90;99.90
43183;DHT22;28802;38.578;-0.066;2023-04-15T05:49:03;21.30;99.90
43183;DHT22;28802;38.578;-0.066;2023-04-15T05:51:32;21.50;99.90
43183;DHT22;28802;38.578;-0.066;2023-04-15T05:53:58;21.60;99.90
43183;DHT22;28802;38.578;-0.066;2023-04-15T05:56:24;21.50;99.90
43183;DHT22;28802;38.578;-0.066;2023-04-15T05:58:51;21.40;99.90
43183;DHT22;28802;38.578;-0.066;2023-04-15T06:01:17;21.40;99.90
43183;DHT22;28802;38.578;-0.066;2023-04-15T06:03:44;21.40;99.90
43183;DHT22;28802;38.578;-0.066;2023-04-15T06:06:10;21.50;99.90
43183;DHT22;28802;38.578;-0.066;2023-04-15T06:08:36;21.50;99.90
43183;DHT22;28802;38.578;-0.066;2023-04-15T06:11:02;21.60;99.90
43183;DHT22;28802;38.578;-0.066;2023-04-15T06:13:28;22.00;99.90
43183;DHT22;28802;38.578;-0.066;2023-04-15T06:15:54;22.20;99.90
43183;DHT22;28802;38.578;-0.066;2023-04-15T06:18:20;22.30;99.90
43183;DHT22;28802;38.578;-0.066;2023-04-15T06:20:47;22.20;99.90
43183;DHT22;28802;38.578;-0.066;2023-04-15T06:23:13;22.40;99.90
43183;DHT22;28802;38.578;-0.066;2023-04-15T06:25:39;22.50;99.90
43183;DHT22;28802;38.578;-0.066;2023-04-15T06:28:05;22.40;99.90
43183;DHT22;28802;38.578;-0.066;2023-04-15T06:30:35;22.70;99.90
43183;DHT22;28802;38.578;-0.066;2023-04-15T06:33:01;22.90;99.90
43183;DHT22;28802;38.578;-0.066;2023-04-15T06:35:30;23.30;99.90
43183;DHT22;28802;38.578;-0.066;2023-04-15T06:37:57;23.40;99.90
43183;DHT22;28802;38.578;-0.066;2023-04-15T06:40:26;23.30;99.90
43183;DHT22;28802;38.578;-0.066;2023-04-15T06:42:52;23.50;99.90
43183;DHT22;28802;38.578;-0.066;2023-04-15T06:45:18;23.80;99.90
43183;DHT22;28802;38.578;-0.066;2023-04-15T06:47:47;24.10;99.90
43183;DHT22;28802;38.578;-0.066;2023-04-15T06:50:17;24.50;99.90
43183;DHT22;28802;38.578;-0.066;2023-04-15T06:52:43;24.80;99.90
43183;DHT22;28802;38.578;-0.066;2023-04-15T06:55:10;24.90;99.90
43183;DHT22;28802;38.578;-0.066;2023-04-15T06:57:39;25.30;99.90
43183;DHT22;28802;38.578;-0.066;2023-04-15T07:00:09;25.60;99.30
43183;DHT22;28802;38.578;-0.066;2023-04-15T07:02:43;26.00;98.20
43183;DHT22;28802;38.578;-0.066;2023-04-15T07:05:14;26.10;96.80
43183;DHT22;28802;38.578;-0.066;2023-04-15T07:07:40;27.00;96.30
43183;DHT22;28802;38.578;-0.066;2023-04-15T07:10:07;28.20;94.80
43183;DHT22;28802;38.578;-0.066;2023-04-15T07:12:33;28.90;93.90
43183;DHT22;28802;38.578;-0.066;2023-04-15T07:15:00;29.50;93.00
43183;DHT22;28802;38.578;-0.066;2023-04-15T07:17:26;28.40;95.40
43183;DHT22;28802;38.578;-0.066;2023-04-15T07:19:55;27.00;99.90
43183;DHT22;28802;38.578;-0.066;2023-04-15T07:22:21;27.50;99.90
43183;DHT22;28802;38.578;-0.066;2023-04-15T07:24:47;26.70;99.60
43183;DHT22;28802;38.578;-0.066;2023-04-15T07:27:13;26.40;99.90
43183;DHT22;28802;38.578;-0.066;2023-04-15T07:29:39;24.60;99.90
43183;DHT22;28802;38.578;-0.066;2023-04-15T07:32:05;24.90;99.90
43183;DHT22;28802;38.578;-0.066;2023-04-15T07:34:35;24.70;99.90
43183;DHT22;28802;38.578;-0.066;2023-04-15T07:37:05;24.30;99.90
43183;DHT22;28802;38.578;-0.066;2023-04-15T07:39:31;25.80;99.90
43183;DHT22;28802;38.578;-0.066;2023-04-15T07:42:06;26.40;99.90
43183;DHT22;28802;38.578;-0.066;2023-04-15T07:44:35;26.70;99.90
43183;DHT22;28802;38.578;-0.066;2023-04-15T07:47:02;27.10;99.90
43183;DHT22;28802;38.578;-0.066;2023-04-15T07:49:32;26.10;99.90
43183;DHT22;28802;38.578;-0.066;2023-04-15T07:51:58;26.00;99.90
43183;DHT22;28802;38.578;-0.066;2023-04-15T07:54:24;26.40;99.90
43183;DHT22;28802;38.578;-0.066;2023-04-15T07:56:50;26.20;99.90
43183;DHT22;28802;38.578;-0.066;2023-04-15T07:59:16;25.60;99.90
43183;DHT22;28802;38.578;-0.066;2023-04-15T08:01:43;24.90;99.90
43183;DHT22;28802;38.578;-0.066;2023-04-15T08:04:19;24.50;99.90
43183;DHT22;28802;38.578;-0.066;2023-04-15T08:06:45;24.30;99.90
43183;DHT22;28802;38.578;-0.066;2023-04-15T08:09:13;24.30;99.90
43183;DHT22;28802;38.578;-0.066;2023-04-15T08:11:39;24.00;99.90
43183;DHT22;28802;38.578;-0.066;2023-04-15T08:14:06;23.80;99.90
43183;DHT22;28802;38.578;-0.066;2023-04-15T08:16:32;23.40;99.90
43183;DHT22;28802;38.578;-0.066;2023-04-15T08:18:58;23.50;99.90
43183;DHT22;28802;38.578;-0.066;2023-04-15T08:21:24;23.20;99.90
43183;DHT22;28802;38.578;-0.066;2023-04-15T08:23:51;23.20;99.90
43183;DHT22;28802;38.578;-0.066;2023-04-15T08:26:19;23.50;99.90
43183;DHT22;28802;38.578;-0.066;2023-04-15T08:28:45;23.40;99.90
43183;DHT22;28802;38.578;-0.066;2023-04-15T08:31:13;22.90;99.90
43183;DHT22;28802;38.578;-0.066;2023-04-15T08:33:39;22.90;99.90
43183;DHT22;28802;38.578;-0.066;2023-04-15T08:36:05;23.10;99.90
43183;DHT22;28802;38.578;-0.066;2023-04-15T08:38:32;23.30;99.90
43183;DHT22;28802;38.578;-0.066;2023-04-15T08:41:00;23.40;99.90
43183;DHT22;28802;38.578;-0.066;2023-04-15T08:43:34;23.40;99.90
43183;DHT22;28802;38.578;-0.066;2023-04-15T08:46:04;23.70;99.90
43183;DHT22;28802;38.578;-0.066;2023-04-15T08:48:37;23.60;99.90
43183;DHT22;28802;38.578;-0.066;2023-04-15T08:51:05;23.60;99.90
43183;DHT22;28802;38.578;-0.066;2023-04-15T08:53:32;23.60;99.90
43183;DHT22;28802;38.578;-0.066;2023-04-15T08:56:10;24.30;99.90
43183;DHT22;28802;38.578;-0.066;2023-04-15T08:58:37;24.00;99.90
43183;DHT22;28802;38.578;-0.066;2023-04-15T09:01:03;23.70;99.90
43183;DHT22;28802;38.578;-0.066;2023-04-15T09:03:29;24.30;99.90
43183;DHT22;28802;38.578;-0.066;2023-04-15T09:05:56;24.30;99.90
43183;DHT22;28802;38.578;-0.066;2023-04-15T09:08:23;24.70;99.90
43183;DHT22;28802;38.578;-0.066;2023-04-15T09:10:49;24.60;99.90
43183;DHT22;28802;38.578;-0.066;2023-04-15T09:13:15;24.90;99.90
43183;DHT22;28802;38.578;-0.066;2023-04-15T09:15:41;24.70;99.90
43183;DHT22;28802;38.578;-0.066;2023-04-15T09:18:11;24.90;99.90
43183;DHT22;28802;38.578;-0.066;2023-04-15T09:20:39;25.10;99.90
43183;DHT22;28802;38.578;-0.066;2023-04-15T09:23:13;25.10;99.90
43183;DHT22;28802;38.578;-0.066;2023-04-15T09:25:40;25.50;99.90
43183;DHT22;28802;38.578;-0.066;2023-04-15T09:28:09;25.80;99.90
43183;DHT22;28802;38.578;-0.066;2023-04-15T09:30:36;25.50;99.90
43183;DHT22;28802;38.578;-0.066;2023-04-15T09:33:03;24.40;99.90
43183;DHT22;28802;38.578;-0.066;2023-04-15T09:35:35;24.60;99.90
43183;DHT22;28802;38.578;-0.066;2023-04-15T09:38:07;25.00;99.90
43183;DHT22;28802;38.578;-0.066;2023-04-15T09:40:36;25.40;99.90
43183;DHT22;28802;38.578;-0.066;2023-04-15T09:43:07;24.90;99.90
43183;DHT22;28802;38.578;-0.066;2023-04-15T09:45:34;24.30;99.90
43183;DHT22;28802;38.578;-0.066;2023-04-15T09:48:20;24.20;99.90
43183;DHT22;28802;38.578;-0.066;2023-04-15T09:50:50;23.70;99.90
43183;DHT22;28802;38.578;-0.066;2023-04-15T09:53:20;24.00;99.90
43183;DHT22;28802;38.578;-0.066;2023-04-15T09:58:22;23.60;99.90
43183;DHT22;28802;38.578;-0.066;2023-04-15T10:00:50;23.10;99.90
43183;DHT22;28802;38.578;-0.066;2023-04-15T10:03:28;22.70;99.90
43183;DHT22;28802;38.578;-0.066;2023-04-15T10:05:55;22.30;99.90
43183;DHT22;28802;38.578;-0.066;2023-04-15T10:08:23;23.10;99.90
43183;DHT22;28802;38.578;-0.066;2023-04-15T10:10:50;24.60;99.90
43183;DHT22;28802;38.578;-0.066;2023-04-15T10:13:19;24.80;99.90
43183;DHT22;28802;38.578;-0.066;2023-04-15T10:15:55;25.40;99.90
43183;DHT22;28802;38.578;-0.066;2023-04-15T10:18:24;24.90;99.90
43183;DHT22;28802;38.578;-0.066;2023-04-15T10:20:52;24.10;99.90
43183;DHT22;28802;38.578;-0.066;2023-04-15T10:23:19;23.80;99.90
43183;DHT22;28802;38.578;-0.066;2023-04-15T10:25:46;23.80;99.90
43183;DHT22;28802;38.578;-0.066;2023-04-15T10:28:12;23.80;99.90
43183;DHT22;28802;38.578;-0.066;2023-04-15T10:30:39;23.20;99.90
43183;DHT22;28802;38.578;-0.066;2023-04-15T10:33:06;23.00;99.90
43183;DHT22;28802;38.578;-0.066;2023-04-15T10:35:34;23.30;99.90
43183;DHT22;28802;38.578;-0.066;2023-04-15T10:38:00;23.30;99.90
43183;DHT22;28802;38.578;-0.066;2023-04-15T10:40:27;24.00;99.90
43183;DHT22;28802;38.578;-0.066;2023-04-15T10:42:59;23.40;99.90
43183;DHT22;28802;38.578;-0.066;2023-04-15T10:45:36;22.90;99.90
43183;DHT22;28802;38.578;-0.066;2023-04-15T10:48:04;23.40;99.90
43183;DHT22;28802;38.578;-0.066;2023-04-15T10:50:31;23.70;99.90
43183;DHT22;28802;38.578;-0.066;2023-04-15T10:52:58;24.10;99.90
43183;DHT22;28802;38.578;-0.066;2023-04-15T10:55:25;24.70;99.90
43183;DHT22;28802;38.578;-0.066;2023-04-15T10:57:59;23.30;99.90
43183;DHT22;28802;38.578;-0.066;2023-04-15T11:00:29;23.60;99.90
43183;DHT22;28802;38.578;-0.066;2023-04-15T11:02:58;23.70;99.90
43183;DHT22;28802;38.578;-0.066;2023-04-15T11:05:48;24.30;99.90
43183;DHT22;28802;38.578;-0.066;2023-04-15T11:08:14;24.90;99.90
43183;DHT22;28802;38.578;-0.066;2023-04-15T11:15:37;22.80;99.90
43183;DHT22;28802;38.578;-0.066;2023-04-15T11:18:15;23.40;99.90
43183;DHT22;28802;38.578;-0.066;2023-04-15T11:20:46;23.20;99.90
43183;DHT22;28802;38.578;-0.066;2023-04-15T11:23:14;23.60;99.90
43183;DHT22;28802;38.578;-0.066;2023-04-15T11:25:42;25.00;99.90
43183;DHT22;28802;38.578;-0.066;2023-04-15T11:28:08;24.90;99.90
43183;DHT22;28802;38.578;-0.066;2023-04-15T11:30:35;24.60;99.90
43183;DHT22;28802;38.578;-0.066;2023-04-15T11:33:08;25.10;99.90
43183;DHT22;28802;38.578;-0.066;2023-04-15T11:35:35;25.90;99.90
43183;DHT22;28802;38.578;-0.066;2023-04-15T11:38:12;26.40;99.90
43183;DHT22;28802;38.578;-0.066;2023-04-15T11:40:44;26.20;99.90
43183;DHT22;28802;38.578;-0.066;2023-04-15T11:43:13;26.60;99.90
43183;DHT22;28802;38.578;-0.066;2023-04-15T11:45:55;26.30;99.90
43183;DHT22;28802;38.578;-0.066;2023-04-15T11:48:23;25.90;99.90
43183;DHT22;28802;38.578;-0.066;2023-04-15T11:51:00;26.40;99.90
43183;DHT22;28802;38.578;-0.066;2023-04-15T11:58:42;27.50;99.90
43183;DHT22;28802;38.578;-0.066;2023-04-15T12:01:09;27.60;99.90
43183;DHT22;28802;38.578;-0.066;2023-04-15T12:03:40;26.70;99.90
43183;DHT22;28802;38.578;-0.066;2023-04-15T12:06:20;26.10;99.90
43183;DHT22;28802;38.578;-0.066;2023-04-15T12:13:57;25.60;99.90
43183;DHT22;28802;38.578;-0.066;2023-04-15T12:16:24;25.40;99.90
43183;DHT22;28802;38.578;-0.066;2023-04-15T12:18:52;25.60;99.90
43183;DHT22;28802;38.578;-0.066;2023-04-15T12:21:25;26.00;99.90
43183;DHT22;28802;38.578;-0.066;2023-04-15T12:23:55;27.30;99.90
43183;DHT22;28802;38.578;-0.066;2023-04-15T12:26:27;27.40;99.90
43183;DHT22;28802;38.578;-0.066;2023-04-15T12:28:54;25.60;99.90
43183;DHT22;28802;38.578;-0.066;2023-04-15T12:31:21;25.00;99.90
43183;DHT22;28802;38.578;-0.066;2023-04-15T12:33:48;24.90;99.90
43183;DHT22;28802;38.578;-0.066;2023-04-15T12:36:14;24.30;99.90
43183;DHT22;28802;38.578;-0.066;2023-04-15T12:38:41;23.80;99.90
43183;DHT22;28802;38.578;-0.066;2023-04-15T12:41:07;23.60;99.90
43183;DHT22;28802;38.578;-0.066;2023-04-15T12:43:33;23.80;99.90
43183;DHT22;28802;38.578;-0.066;2023-04-15T12:45:58;23.60;99.90
43183;DHT22;28802;38.578;-0.066;2023-04-15T12:48:24;23.40;99.90
43183;DHT22;28802;38.578;-0.066;2023-04-15T12:50:50;23.40;99.90
43183;DHT22;28802;38.578;-0.066;2023-04-15T12:53:17;22.80;99.90
43183;DHT22;28802;38.578;-0.066;2023-04-15T12:55:43;22.50;99.90
43183;DHT22;28802;38.578;-0.066;2023-04-15T12:58:08;22.70;99.90
43183;DHT22;28802;38.578;-0.066;2023-04-15T13:00:36;22.50;99.90
43183;DHT22;28802;38.578;-0.066;2023-04-15T13:03:03;22.60;99.90
43183;DHT22;28802;38.578;-0.066;2023-04-15T13:05:29;22.10;99.90
43183;DHT22;28802;38.578;-0.066;2023-04-15T13:07:55;21.80;99.90
43183;DHT22;28802;38.578;-0.066;2023-04-15T13:10:21;21.70;99.90
43183;DHT22;28802;38.578;-0.066;2023-04-15T13:12:51;21.50;99.90
43183;DHT22;28802;38.578;-0.066;2023-04-15T13:15:19;21.00;99.90
43183;DHT22;28802;38.578;-0.066;2023-04-15T13:17:49;20.90;99.90
43183;DHT22;28802;38.578;-0.066;2023-04-15T13:20:15;21.20;99.90
43183;DHT22;28802;38.578;-0.066;2023-04-15T13:22:42;21.20;99.90
43183;DHT22;28802;38.578;-0.066;2023-04-15T13:25:08;21.10;99.90
43183;DHT22;28802;38.578;-0.066;2023-04-15T13:27:37;21.00;99.90
43183;DHT22;28802;38.578;-0.066;2023-04-15T13:30:04;21.20;99.90
43183;DHT22;28802;38.578;-0.066;2023-04-15T13:32:31;20.90;99.90
43183;DHT22;28802;38.578;-0.066;2023-04-15T13:34:57;21.00;99.90
43183;DHT22;28802;38.578;-0.066;2023-04-15T13:37:27;21.10;99.90
43183;DHT22;28802;38.578;-0.066;2023-04-15T13:39:55;21.00;99.90
43183;DHT22;28802;38.578;-0.066;2023-04-15T13:42:22;20.90;99.90
43183;DHT22;28802;38.578;-0.066;2023-04-15T13:44:49;20.60;99.90
43183;DHT22;28802;38.578;-0.066;2023-04-15T13:47:25;20.40;99.90
43183;DHT22;28802;38.578;-0.066;2023-04-15T13:49:51;20.20;99.90
43183;DHT22;28802;38.578;-0.066;2023-04-15T13:52:18;20.20;99.90
43183;DHT22;28802;38.578;-0.066;2023-04-15T13:54:45;20.20;99.90
43183;DHT22;28802;38.578;-0.066;2023-04-15T13:57:15;20.10;99.90
43183;DHT22;28802;38.578;-0.066;2023-04-15T13:59:41;20.20;99.90
43183;DHT22;28802;38.578;-0.066;2023-04-15T14:02:08;20.10;99.90
43183;DHT22;28802;38.578;-0.066;2023-04-15T14:04:34;20.20;99.90
43183;DHT22;28802;38.578;-0.066;2023-04-15T14:07:00;20.50;99.90
43183;DHT22;28802;38.578;-0.066;2023-04-15T14:09:26;20.50;99.90
43183;DHT22;28802;38.578;-0.066;2023-04-15T14:11:52;20.60;99.90
43183;DHT22;28802;38.578;-0.066;2023-04-15T14:14:19;20.40;99.90
43183;DHT22;28802;38.578;-0.066;2023-04-15T14:16:45;20.30;99.90
43183;DHT22;28802;38.578;-0.066;2023-04-15T14:19:13;20.40;99.90
43183;DHT22;28802;38.578;-0.066;2023-04-15T14:21:42;20.50;99.90
43183;DHT22;28802;38.578;-0.066;2023-04-15T14:24:09;20.30;99.90
43183;DHT22;28802;38.578;-0.066;2023-04-15T14:26:43;20.30;99.90
43183;DHT22;28802;38.578;-0.066;2023-04-15T14:29:11;20.50;99.90
43183;DHT22;28802;38.578;-0.066;2023-04-15T14:31:37;20.50;99.90
43183;DHT22;28802;38.578;-0.066;2023-04-15T14:34:03;20.40;99.90
43183;DHT22;28802;38.578;-0.066;2023-04-15T14:36:30;20.50;99.90
43183;DHT22;28802;38.578;-0.066;2023-04-15T14:38:56;20.40;99.90
43183;DHT22;28802;38.578;-0.066;2023-04-15T14:41:22;20.40;99.90
43183;DHT22;28802;38.578;-0.066;2023-04-15T14:43:48;20.10;99.90
43183;DHT22;28802;38.578;-0.066;2023-04-15T14:46:17;19.80;99.90
43183;DHT22;28802;38.578;-0.066;2023-04-15T14:48:43;19.80;99.90
43183;DHT22;28802;38.578;-0.066;2023-04-15T14:51:10;19.70;99.90
43183;DHT22;28802;38.578;-0.066;2023-04-15T14:53:36;19.80;99.90
43183;DHT22;28802;38.578;-0.066;2023-04-15T14:56:02;20.00;99.90
43183;DHT22;28802;38.578;-0.066;2023-04-15T14:58:28;20.10;99.90
43183;DHT22;28802;38.578;-0.066;2023-04-15T15:00:54;20.10;99.90
43183;DHT22;28802;38.578;-0.066;2023-04-15T15:03:20;20.00;99.90
43183;DHT22;28802;38.578;-0.066;2023-04-15T15:05:58;19.90;99.90
43183;DHT22;28802;38.578;-0.066;2023-04-15T15:08:24;19.90;99.90
43183;DHT22;28802;38.578;-0.066;2023-04-15T15:10:50;20.00;99.90
43183;DHT22;28802;38.578;-0.066;2023-04-15T15:13:16;20.10;99.90
43183;DHT22;28802;38.578;-0.066;2023-04-15T15:15:43;20.30;99.90
43183;DHT22;28802;38.578;-0.066;2023-04-15T15:18:10;20.40;99.90
43183;DHT22;28802;38.578;-0.066;2023-04-15T15:20:39;20.60;99.90
43183;DHT22;28802;38.578;-0.066;2023-04-15T15:23:05;20.90;99.90
43183;DHT22;28802;38.578;-0.066;2023-04-15T15:25:31;21.20;99.90
43183;DHT22;28802;38.578;-0.066;2023-04-15T15:27:57;21.60;99.90
43183;DHT22;28802;38.578;-0.066;2023-04-15T15:30:26;21.60;99.90
43183;DHT22;28802;38.578;-0.066;2023-04-15T15:32:55;21.70;99.90
43183;DHT22;28802;38.578;-0.066;2023-04-15T15:35:21;21.90;99.90
43183;DHT22;28802;38.578;-0.066;2023-04-15T15:37:48;21.80;99.90